Time;durP1;ratioP1;P1;durP2;ratioP2;P2;SDS_P1;SDS_P2;PMS_P1;PMS_P2;Temp;Humidity;BMP_temperature;BMP_pressure;BME280_temperature;BME280_humidity;BME280_pressure;Samples;Min_cycle;Max_cycle;Signal;HPM_P1;HPM_P2
2022/05/03 00:01:57;;;;;;;;;;;;;;;;;;5012087;28;1318;-73
2022/05/03 00:04:24;;;;;;;;;;;;;;;;;;5012026;28;1902;-73
2022/05/03 00:06:53;;;;;;;;;;;;;;;;;;5012463;28;1071;-73
2022/05/03 00:09:23;;;;;;;;;;;;;;;;;;5012765;28;1036;-74
2022/05/03 00:11:53;;;;;;;;;;;;;;;;;;5012743;28;1322;-73
2022/05/03 00:14:21;;;;;;;;;;;;;;;;;;5012918;28;770;-73
2022/05/03 00:16:47;;;;;;;;;;;;;;;;;;5012557;28;1068;-72
2022/05/03 00:19:13;;;;;;;;;;;;;;;;;;5012656;28;981;-73
2022/05/03 00:21:40;;;;;;;;;;;;;;;;;;5012491;28;1379;-73
2022/05/03 00:24:06;;;;;;;;;;;;;;;;;;5011184;28;1918;-73
2022/05/03 00:26:34;;;;;;;;;;;;;;;;;;5011043;28;1254;-74
2022/05/03 00:29:01;;;;;;;;;;;;;;;;;;5012540;28;1005;-73
2022/05/03 00:31:28;;;;;;;;;;;;;;;;;;5012364;28;1312;-73
2022/05/03 00:33:55;;;;;;;;;;;;;;;;;;5012350;28;784;-73
2022/05/03 00:36:21;;;;;;;;;;;;;;;;;;5011915;28;807;-73
2022/05/03 00:38:47;;;;;;;;;;;;;;;;;;5012386;28;879;-73
2022/05/03 00:41:15;;;;;;;;;;;;;;;;;;5010715;28;1415;-73
2022/05/03 00:43:44;;;;;;;;;;;;;;;;;;5010891;28;1910;-72
2022/05/03 00:46:11;;;;;;;;;;;;;;;;;;5012072;28;869;-74
2022/05/03 00:48:42;;;;;;;;;;;;;;;;;;5010905;28;1673;-74
2022/05/03 00:51:12;;;;;;;;;;;;;;;;;;5011912;28;1387;-74
2022/05/03 00:53:39;;;;;;;;;;;;;;;;;;5012201;28;993;-74
2022/05/03 00:56:10;;;;;;;;;;;;;;;;;;5010620;28;1275;-72
2022/05/03 00:58:57;;;;;;;;;;;;;;;;;;5012011;28;950;-74
2022/05/03 01:01:27;;;;;;;;;;;;;;;;;;5007892;28;1382;-74
2022/05/03 01:03:56;;;;;;;;;;;;;;;;;;5011570;28;1922;-74
2022/05/03 01:06:26;;;;;;;;;;;;;;;;;;5011806;28;905;-73
2022/05/03 01:08:57;;;;;;;;;;;;;;;;;;5011984;28;922;-74
2022/05/03 01:11:26;;;;;;;;;;;;;;;;;;5011690;28;1409;-74
2022/05/03 01:13:53;;;;;;;;;;;;;;;;;;5011657;28;1123;-74
2022/05/03 01:16:21;;;;;;;;;;;;;;;;;;5011593;28;1456;-74
2022/05/03 01:18:51;;;;;;;;;;;;;;;;;;5013761;28;1775;-73
2022/05/03 01:21:20;;;;;;;;;;;;;;;;;;5011467;28;1303;-74
2022/05/03 01:23:51;;;;;;;;;;;;;;;;;;5010303;28;1953;-74
2022/05/03 01:26:27;;;;;;;;;;;;;;;;;;5011429;28;1021;-75
2022/05/03 01:28:58;;;;;;;;;;;;;;;;;;5011445;28;1000;-74
2022/05/03 01:31:25;;;;;;;;;;;;;;;;;;5010100;28;1727;-74
2022/05/03 01:33:51;;;;;;;;;;;;;;;;;;5011285;28;981;-72
2022/05/03 01:36:20;;;;;;;;;;;;;;;;;;5009999;28;1175;-73
2022/05/03 01:38:52;;;;;;;;;;;;;;;;;;5009838;28;1132;-74
2022/05/03 01:41:24;;;;;;;;;;;;;;;;;;5011217;28;1309;-75
2022/05/03 01:44:01;;;;;;;;;;;;;;;;;;5011084;28;1910;-73
2022/05/03 01:46:28;;;;;;;;;;;;;;;;;;5010133;28;1658;-74
2022/05/03 01:51:45;;;;;;;;;;;;;;;;;;5011011;28;1395;-74
2022/05/03 01:54:15;;;;;;;;;;;;;;;;;;5010953;28;1060;-75
2022/05/03 01:56:42;;;;;;;;;;;;;;;;;;5010659;28;925;-73
2022/05/03 01:59:20;;;;;;;;;;;;;;;;;;5009661;28;1401;-74
2022/05/03 02:01:52;;;;;;;;;;;;;;;;;;5010745;28;1310;-74
2022/05/03 02:04:23;;;;;;;;;;;;;;;;;;5010630;28;1975;-74
2022/05/03 02:06:51;;;;;;;;;;;;;;;;;;5010248;28;1151;-73
2022/05/03 02:09:18;;;;;;;;;;;;;;;;;;5010933;28;977;-73
2022/05/03 02:11:46;;;;;;;;;;;;;;;;;;5010560;28;1337;-73
2022/05/03 02:17:02;;;;;;;;;;;;;;;;;;5010268;28;1005;-74
2022/05/03 02:19:34;;;;;;;;;;;;;;;;;;5011501;28;1072;-71
2022/05/03 02:22:04;;;;;;;;;;;;;;;;;;5010283;28;2087;-73
2022/05/03 02:24:33;;;;;;;;;;;;;;;;;;5026960;28;2431;-74
2022/05/03 02:27:01;;;;;;;;;;;;;;;;;;5029576;28;1186;-74
2022/05/03 02:29:28;;;;;;;;;;;;;;;;;;5030193;28;862;-73
2022/05/03 02:31:54;;;;;;;;;;;;;;;;;;5030092;28;1307;-73
2022/05/03 02:34:24;;;;;;;;;;;;;;;;;;5030215;28;1092;-74
2022/05/03 02:36:53;;;;;;;;;;;;;;;;;;5030084;28;1155;-73
2022/05/03 02:39:20;;;;;;;;;;;;;;;;;;5029107;28;1228;-74
2022/05/03 02:41:47;;;;;;;;;;;;;;;;;;5029903;28;1292;-74
2022/05/03 02:44:13;;;;;;;;;;;;;;;;;;5029924;28;1975;-74
2022/05/03 02:46:45;;;;;;;;;;;;;;;;;;5029797;28;1167;-74
2022/05/03 02:49:13;;;;;;;;;;;;;;;;;;5030237;28;687;-73
2022/05/03 02:51:44;;;;;;;;;;;;;;;;;;5029882;28;1342;-74
2022/05/03 02:54:12;;;;;;;;;;;;;;;;;;5030135;28;977;-74
2022/05/03 02:56:41;;;;;;;;;;;;;;;;;;5029721;28;980;-74
2022/05/03 02:59:10;;;;;;;;;;;;;;;;;;5032516;28;1739;-74
2022/05/03 03:01:48;;;;;;;;;;;;;;;;;;5033402;28;1321;-74
2022/05/03 03:04:16;;;;;;;;;;;;;;;;;;5033842;28;1981;-74
2022/05/03 03:06:44;;;;;;;;;;;;;;;;;;5032103;28;1109;-74
2022/05/03 03:09:10;;;;;;;;;;;;;;;;;;5034216;28;1120;-74
2022/05/03 03:11:39;;;;;;;;;;;;;;;;;;5032213;28;1329;-74
2022/05/03 03:14:12;;;;;;;;;;;;;;;;;;5033671;28;783;-74
2022/05/03 03:16:41;;;;;;;;;;;;;;;;;;5033396;28;854;-73
2022/05/03 03:19:08;;;;;;;;;;;;;;;;;;5033535;28;1027;-74
2022/05/03 03:21:34;;;;;;;;;;;;;;;;;;5033294;28;1371;-74
2022/05/03 03:24:02;;;;;;;;;;;;;;;;;;5033512;28;1959;-74
2022/05/03 03:26:29;;;;;;;;;;;;;;;;;;5025362;28;1428;-74
2022/05/03 03:28:56;;;;;;;;;;;;;;;;;;5013795;28;1048;-74
2022/05/03 03:31:22;;;;;;;;;;;;;;;;;;5012395;28;1530;-74
2022/05/03 03:33:48;;;;;;;;;;;;;;;;;;5013540;28;1076;-73
2022/05/03 03:36:14;;;;;;;;;;;;;;;;;;5013135;28;1004;-74
2022/05/03 03:38:41;;;;;;;;;;;;;;;;;;5013422;28;1093;-73
2022/05/03 03:41:09;;;;;;;;;;;;;;;;;;5013601;28;1408;-74
2022/05/03 03:43:35;;;;;;;;;;;;;;;;;;5013224;28;1039;-74
2022/05/03 03:46:01;;;;;;;;;;;;;;;;;;5013318;28;1983;-73
2022/05/03 03:48:27;;;;;;;;;;;;;;;;;;5013096;28;799;-73
2022/05/03 03:50:53;;;;;;;;;;;;;;;;;;5013127;28;1383;-74
2022/05/03 03:53:20;;;;;;;;;;;;;;;;;;5012744;28;1071;-73
2022/05/03 03:55:46;;;;;;;;;;;;;;;;;;5013051;28;933;-73
2022/05/03 03:58:14;;;;;;;;;;;;;;;;;;5011906;28;1266;-73
2022/05/03 04:00:40;;;;;;;;;;;;;;;;;;5022500;28;1594;-74
2022/05/03 04:03:07;;;;;;;;;;;;;;;;;;5032688;28;1252;-74
2022/05/03 04:05:33;;;;;;;;;;;;;;;;;;5032535;28;1975;-73
2022/05/03 04:08:00;;;;;;;;;;;;;;;;;;5028723;28;1399;-74
2022/05/03 04:10:26;;;;;;;;;;;;;;;;;;5029300;28;1415;-73
2022/05/03 04:12:52;;;;;;;;;;;;;;;;;;5029509;28;1186;-73
2022/05/03 04:15:19;;;;;;;;;;;;;;;;;;5032838;28;738;-73
2022/05/03 04:17:46;;;;;;;;;;;;;;;;;;5030052;28;1458;-74
2022/05/03 04:20:12;;;;;;;;;;;;;;;;;;5032408;28;1431;-73
2022/05/03 04:22:38;;;;;;;;;;;;;;;;;;5032379;28;1156;-73
2022/05/03 04:25:05;;;;;;;;;;;;;;;;;;5029965;28;1914;-74
2022/05/03 04:27:31;;;;;;;;;;;;;;;;;;5031593;28;1353;-75
2022/05/03 04:29:58;;;;;;;;;;;;;;;;;;5025545;28;1471;-73
2022/05/03 04:32:27;;;;;;;;;;;;;;;;;;5032396;28;1241;-73
2022/05/03 04:34:53;;;;;;;;;;;;;;;;;;5030877;28;1443;-72
2022/05/03 04:37:19;;;;;;;;;;;;;;;;;;5029126;28;1474;-74
2022/05/03 04:39:46;;;;;;;;;;;;;;;;;;5031821;28;1162;-73
2022/05/03 04:42:12;;;;;;;;;;;;;;;;;;5014470;28;1710;-73
2022/05/03 04:44:39;;;;;;;;;;;;;;;;;;5031838;28;1914;-73
2022/05/03 04:47:05;;;;;;;;;;;;;;;;;;5031701;28;783;-74
2022/05/03 04:49:32;;;;;;;;;;;;;;;;;;5030754;28;1124;-73
2022/05/03 04:51:59;;;;;;;;;;;;;;;;;;5031911;28;1376;-73
2022/05/03 04:54:25;;;;;;;;;;;;;;;;;;5031897;28;1076;-73
2022/05/03 04:56:52;;;;;;;;;;;;;;;;;;5031523;28;1112;-74
2022/05/03 04:59:18;;;;;;;;;;;;;;;;;;5031897;28;1159;-74
2022/05/03 05:01:45;;;;;;;;;;;;;;;;;;5031465;28;1389;-74
2022/05/03 05:04:11;;;;;;;;;;;;;;;;;;5032109;28;894;-73
2022/05/03 05:06:38;;;;;;;;;;;;;;;;;;5030972;28;1910;-73
2022/05/03 05:09:05;;;;;;;;;;;;;;;;;;5031575;28;787;-73
2022/05/03 05:11:31;;;;;;;;;;;;;;;;;;5031320;28;1397;-74
2022/05/03 05:13:57;;;;;;;;;;;;;;;;;;5031555;28;1111;-73
2022/05/03 05:16:23;;;;;;;;;;;;;;;;;;5031264;28;921;-73
2022/05/03 05:18:49;;;;;;;;;;;;;;;;;;5030202;28;1292;-73
2022/05/03 05:21:16;;;;;;;;;;;;;;;;;;5029348;28;1512;-73
2022/05/03 05:23:43;;;;;;;;;;;;;;;;;;5011499;28;906;-73
2022/05/03 05:26:09;;;;;;;;;;;;;;;;;;5010728;28;1981;-72
2022/05/03 05:28:36;;;;;;;;;;;;;;;;;;5011377;28;831;-73
2022/05/03 05:31:02;;;;;;;;;;;;;;;;;;5011435;28;1304;-72
2022/05/03 05:33:28;;;;;;;;;;;;;;;;;;5011173;28;945;-74
2022/05/03 05:35:54;;;;;;;;;;;;;;;;;;5011291;28;1127;-73
2022/05/03 05:38:20;;;;;;;;;;;;;;;;;;5011381;28;910;-74
2022/05/03 05:40:48;;;;;;;;;;;;;;;;;;5009375;28;1874;-73
2022/05/03 05:43:14;;;;;;;;;;;;;;;;;;5011288;28;792;-73
2022/05/03 05:45:40;;;;;;;;;;;;;;;;;;5010896;28;1911;-73
2022/05/03 05:48:08;;;;;;;;;;;;;;;;;;5011101;28;1114;-73
2022/05/03 05:50:34;;;;;;;;;;;;;;;;;;5010896;28;1381;-74
2022/05/03 05:55:45;;;;;;;;;;;;;;;;;;5010932;28;891;-74
2022/05/03 05:58:12;;;;;;;;;;;;;;;;;;5010736;28;784;-72
2022/05/03 06:00:38;;;;;;;;;;;;;;;;;;5009322;28;1404;-73
2022/05/03 06:03:05;;;;;;;;;;;;;;;;;;5011153;28;1084;-72
2022/05/03 06:05:31;;;;;;;;;;;;;;;;;;5010467;28;1910;-73
2022/05/03 06:07:58;;;;;;;;;;;;;;;;;;5009457;28;1189;-74
2022/05/03 06:10:24;;;;;;;;;;;;;;;;;;5010793;28;1446;-73
2022/05/03 06:12:51;;;;;;;;;;;;;;;;;;5010603;28;1064;-74
2022/05/03 06:15:19;;;;;;;;;;;;;;;;;;5009813;28;1313;-73
2022/05/03 06:17:46;;;;;;;;;;;;;;;;;;5009237;28;921;-74
2022/05/03 06:20:12;;;;;;;;;;;;;;;;;;5009499;28;1474;-73
2022/05/03 06:22:39;;;;;;;;;;;;;;;;;;5009455;28;1116;-74
2022/05/03 06:25:06;;;;;;;;;;;;;;;;;;5010457;28;1919;-73
2022/05/03 06:27:32;;;;;;;;;;;;;;;;;;5010268;28;756;-73
2022/05/03 06:29:58;;;;;;;;;;;;;;;;;;5009349;28;1118;-73
2022/05/03 06:32:26;;;;;;;;;;;;;;;;;;5010098;28;1048;-73
2022/05/03 06:34:52;;;;;;;;;;;;;;;;;;5010741;28;1287;-74
2022/05/03 06:37:18;;;;;;;;;;;;;;;;;;5010325;28;898;-73
2022/05/03 06:39:45;;;;;;;;;;;;;;;;;;5010284;28;1108;-74
2022/05/03 06:42:11;;;;;;;;;;;;;;;;;;5010403;28;1345;-73
2022/05/03 06:44:37;;;;;;;;;;;;;;;;;;5010497;28;787;-73
2022/05/03 06:47:04;;;;;;;;;;;;;;;;;;5010210;28;1918;-73
2022/05/03 06:49:31;;;;;;;;;;;;;;;;;;5009144;28;1108;-74
2022/05/03 06:51:57;;;;;;;;;;;;;;;;;;5010361;28;1384;-74
2022/05/03 06:54:23;;;;;;;;;;;;;;;;;;5010266;28;926;-74
2022/05/03 06:56:50;;;;;;;;;;;;;;;;;;5010100;28;1060;-71
2022/05/03 06:59:16;;;;;;;;;;;;;;;;;;5009997;28;688;-71
2022/05/03 07:01:42;;;;;;;;;;;;;;;;;;5009705;28;1484;-71
2022/05/03 07:04:08;;;;;;;;;;;;;;;;;;5010306;28;855;-71
2022/05/03 07:06:36;;;;;;;;;;;;;;;;;;5008612;28;1985;-72
2022/05/03 07:09:03;;;;;;;;;;;;;;;;;;5010228;28;1115;-72
2022/05/03 07:11:29;;;;;;;;;;;;;;;;;;5009948;28;1384;-71
2022/05/03 07:13:56;;;;;;;;;;;;;;;;;;5010134;28;1064;-71
2022/05/03 07:16:23;;;;;;;;;;;;;;;;;;5012295;28;1515;-71
2022/05/03 07:24:18;;;;;;;;;;;;;;;;;;5010182;28;945;-71
2022/05/03 07:26:44;;;;;;;;;;;;;;;;;;5009750;28;1898;-71
2022/05/03 07:29:11;;;;;;;;;;;;;;;;;;5010211;28;1185;-72
2022/05/03 07:31:41;;;;;;;;;;;;;;;;;;5009779;28;1302;-71
2022/05/03 07:34:07;;;;;;;;;;;;;;;;;;5008859;28;1144;-71
2022/05/03 07:36:33;;;;;;;;;;;;;;;;;;5010017;28;1080;-70
2022/05/03 07:38:59;;;;;;;;;;;;;;;;;;5010207;28;969;-71
2022/05/03 07:41:28;;;;;;;;;;;;;;;;;;5009832;28;1397;-71
2022/05/03 07:43:54;;;;;;;;;;;;;;;;;;5009924;28;1071;-69
2022/05/03 07:46:20;;;;;;;;;;;;;;;;;;5012500;28;1969;-70
2022/05/03 07:48:46;;;;;;;;;;;;;;;;;;5012934;28;1005;-69
2022/05/03 07:51:13;;;;;;;;;;;;;;;;;;5013058;28;1314;-71
2022/05/03 07:53:39;;;;;;;;;;;;;;;;;;5013312;28;1060;-70
2022/05/03 07:56:06;;;;;;;;;;;;;;;;;;5013670;28;1064;-68
2022/05/03 07:58:35;;;;;;;;;;;;;;;;;;5013252;28;933;-72
2022/05/03 08:01:01;;;;;;;;;;;;;;;;;;5013307;28;1424;-70
2022/05/03 08:03:28;;;;;;;;;;;;;;;;;;5014362;28;759;-70
2022/05/03 08:05:54;;;;;;;;;;;;;;;;;;5013239;28;1899;-71
2022/05/03 08:08:20;;;;;;;;;;;;;;;;;;5011415;28;1176;-71
2022/05/03 08:10:47;;;;;;;;;;;;;;;;;;5012813;28;1345;-71
2022/05/03 08:13:13;;;;;;;;;;;;;;;;;;5012820;28;1060;-71
2022/05/03 08:15:40;;;;;;;;;;;;;;;;;;5012751;28;1060;-71
2022/05/03 08:18:07;;;;;;;;;;;;;;;;;;5012673;28;1266;-71
2022/05/03 08:20:33;;;;;;;;;;;;;;;;;;5012546;28;1412;-71
2022/05/03 08:23:00;;;;;;;;;;;;;;;;;;5011345;28;2058;-71
2022/05/03 08:25:26;;;;;;;;;;;;;;;;;;5027745;28;1512;-71
2022/05/03 08:27:52;;;;;;;;;;;;;;;;;;5031666;28;1981;-70
2022/05/03 08:30:19;;;;;;;;;;;;;;;;;;5032252;28;1393;-71
2022/05/03 08:32:46;;;;;;;;;;;;;;;;;;5032321;28;1206;-71
2022/05/03 08:35:12;;;;;;;;;;;;;;;;;;5032167;28;791;-72
2022/05/03 08:43:15;;;;;;;;;;;;;;;;;;5030339;28;925;-71
2022/05/03 08:45:44;;;;;;;;;;;;;;;;;;5031847;28;1906;-71
2022/05/03 08:48:12;;;;;;;;;;;;;;;;;;5031760;28;926;-71
2022/05/03 08:50:38;;;;;;;;;;;;;;;;;;5031879;28;1297;-72
2022/05/03 08:53:05;;;;;;;;;;;;;;;;;;5031930;28;863;-69
2022/05/03 08:55:31;;;;;;;;;;;;;;;;;;5031833;28;1012;-71
2022/05/03 08:57:57;;;;;;;;;;;;;;;;;;5031591;28;957;-71
2022/05/03 09:00:24;;;;;;;;;;;;;;;;;;5031432;28;1266;-70
2022/05/03 09:02:52;;;;;;;;;;;;;;;;;;5032014;28;625;-71
2022/05/03 09:05:20;;;;;;;;;;;;;;;;;;5031668;28;941;-70
2022/05/03 09:07:47;;;;;;;;;;;;;;;;;;5031492;28;1926;-71
2022/05/03 09:10:18;;;;;;;;;;;;;;;;;;5031754;28;1387;-71
2022/05/03 09:12:45;;;;;;;;;;;;;;;;;;5031573;28;823;-71
2022/05/03 09:15:11;;;;;;;;;;;;;;;;;;5031393;28;767;-72
2022/05/03 09:17:38;;;;;;;;;;;;;;;;;;5031205;28;1020;-71
2022/05/03 09:25:47;;;;;;;;;;;;;;;;;;5028470;28;1471;-71
2022/05/03 09:28:13;;;;;;;;;;;;;;;;;;5011119;28;1919;-71
2022/05/03 09:30:44;;;;;;;;;;;;;;;;;;5011530;28;1303;-71
2022/05/03 09:33:15;;;;;;;;;;;;;;;;;;5011450;28;1051;-71
2022/05/03 09:35:41;;;;;;;;;;;;;;;;;;5011063;28;1202;-71
2022/05/03 09:38:08;;;;;;;;;;;;;;;;;;5011204;28;1146;-70
2022/05/03 09:40:35;;;;;;;;;;;;;;;;;;5011295;28;1388;-71
2022/05/03 09:43:01;;;;;;;;;;;;;;;;;;5011147;28;1107;-72
2022/05/03 09:45:28;;;;;;;;;;;;;;;;;;5011218;28;1135;-71
2022/05/03 09:47:55;;;;;;;;;;;;;;;;;;5010968;28;1918;-70
2022/05/03 09:50:26;;;;;;;;;;;;;;;;;;5009803;28;1330;-72
2022/05/03 09:52:53;;;;;;;;;;;;;;;;;;5011008;28;862;-72
2022/05/03 09:55:29;;;;;;;;;;;;;;;;;;5010748;28;949;-72
2022/05/03 09:57:56;;;;;;;;;;;;;;;;;;5009465;28;1120;-72
2022/05/03 10:00:22;;;;;;;;;;;;;;;;;;5011082;28;1329;-70
2022/05/03 10:02:48;;;;;;;;;;;;;;;;;;5009612;28;1294;-71
2022/05/03 10:05:15;;;;;;;;;;;;;;;;;;5010880;28;1087;-72
2022/05/03 10:07:43;;;;;;;;;;;;;;;;;;5010150;28;1973;-71
2022/05/03 10:10:09;;;;;;;;;;;;;;;;;;5010841;28;1286;-72
2022/05/03 10:12:37;;;;;;;;;;;;;;;;;;5010918;28;965;-71
2022/05/03 10:15:03;;;;;;;;;;;;;;;;;;5010617;28;1044;-71
2022/05/03 10:22:56;;;;;;;;;;;;;;;;;;5010379;28;1396;-72
2022/05/03 10:25:28;;;;;;;;;;;;;;;;;;5010909;28;1005;-72
2022/05/03 10:27:55;;;;;;;;;;;;;;;;;;5010346;28;1918;-71
2022/05/03 10:30:22;;;;;;;;;;;;;;;;;;5010576;28;1369;-72
2022/05/03 10:33:04;;;;;;;;;;;;;;;;;;5010327;28;1056;-73
2022/05/03 10:35:33;;;;;;;;;;;;;;;;;;5010356;28;1483;-75
2022/05/03 10:38:03;;;;;;;;;;;;;;;;;;5010229;28;1072;-72
2022/05/03 10:40:30;;;;;;;;;;;;;;;;;;5010427;28;1377;-72
2022/05/03 10:43:05;;;;;;;;;;;;;;;;;;5010494;28;1052;-72
2022/05/03 10:45:31;;;;;;;;;;;;;;;;;;5010850;28;1119;-71
2022/05/03 10:47:57;;;;;;;;;;;;;;;;;;5010276;28;1914;-72
2022/05/03 10:50:26;;;;;;;;;;;;;;;;;;5008881;28;1314;-71
2022/05/03 10:53:16;;;;;;;;;;;;;;;;;;5010186;28;855;-72
2022/05/03 10:55:57;;;;;;;;;;;;;;;;;;5010332;28;1057;-72
2022/05/03 10:58:26;;;;;;;;;;;;;;;;;;5009679;28;1346;-72
2022/05/03 11:01:02;;;;;;;;;;;;;;;;;;5009933;28;1385;-72
2022/05/03 11:03:29;;;;;;;;;;;;;;;;;;5010232;28;969;-72
2022/05/03 11:06:13;;;;;;;;;;;;;;;;;;5010340;28;1143;-72
2022/05/03 11:08:39;;;;;;;;;;;;;;;;;;5010141;28;1918;-72
2022/05/03 11:11:06;;;;;;;;;;;;;;;;;;5009497;28;1476;-72
2022/05/03 11:13:40;;;;;;;;;;;;;;;;;;5010276;28;1063;-72
2022/05/03 11:16:19;;;;;;;;;;;;;;;;;;5009958;28;1022;-69
2022/05/03 11:18:46;;;;;;;;;;;;;;;;;;5010850;28;1127;-72
2022/05/03 11:21:15;;;;;;;;;;;;;;;;;;5013830;28;1409;-72
2022/05/03 11:23:47;;;;;;;;;;;;;;;;;;5014048;28;938;-70
2022/05/03 11:26:13;;;;;;;;;;;;;;;;;;5016398;28;1480;-70
2022/05/03 11:28:41;;;;;;;;;;;;;;;;;;5013564;28;1902;-70
2022/05/03 11:31:07;;;;;;;;;;;;;;;;;;5013739;28;1491;-71
2022/05/03 11:33:35;;;;;;;;;;;;;;;;;;5013741;28;1095;-71
2022/05/03 11:36:03;;;;;;;;;;;;;;;;;;5013303;28;1570;-71
2022/05/03 11:38:29;;;;;;;;;;;;;;;;;;5013358;28;1314;-71
2022/05/03 11:40:55;;;;;;;;;;;;;;;;;;5013477;28;1395;-71
2022/05/03 11:43:21;;;;;;;;;;;;;;;;;;5013540;28;1088;-72
2022/05/03 11:45:49;;;;;;;;;;;;;;;;;;5013223;28;953;-72
2022/05/03 11:48:15;;;;;;;;;;;;;;;;;;5013070;28;1930;-71
2022/05/03 11:56:24;;;;;;;;;;;;;;;;;;4971472;28;1152;-72
2022/05/03 11:58:50;;;;;;;;;;;;;;;;;;5003523;28;1056;-72
2022/05/03 12:01:18;;;;;;;;;;;;;;;;;;5012600;28;1377;-71
2022/05/03 12:03:45;;;;;;;;;;;;;;;;;;5013155;28;1120;-72
2022/05/03 12:06:11;;;;;;;;;;;;;;;;;;5012901;28;889;-72
2022/05/03 12:08:38;;;;;;;;;;;;;;;;;;5013120;28;1918;-72
2022/05/03 12:11:04;;;;;;;;;;;;;;;;;;5012775;28;1408;-71
2022/05/03 12:13:31;;;;;;;;;;;;;;;;;;5013068;28;858;-71
2022/05/03 12:16:06;;;;;;;;;;;;;;;;;;5011745;28;1112;-71
2022/05/03 12:18:33;;;;;;;;;;;;;;;;;;5012732;28;1091;-72
2022/05/03 12:21:00;;;;;;;;;;;;;;;;;;5012985;28;1401;-72
2022/05/03 12:23:37;;;;;;;;;;;;;;;;;;5012953;28;1115;-71
2022/05/03 12:26:14;;;;;;;;;;;;;;;;;;5012988;28;787;-71
2022/05/03 12:28:40;;;;;;;;;;;;;;;;;;5012677;28;1918;-71
2022/05/03 12:31:08;;;;;;;;;;;;;;;;;;5011864;28;1413;-72
2022/05/03 12:33:40;;;;;;;;;;;;;;;;;;5012701;28;1038;-72
2022/05/03 12:36:06;;;;;;;;;;;;;;;;;;5012191;28;819;-71
2022/05/03 12:38:34;;;;;;;;;;;;;;;;;;5012669;28;1079;-71
2022/05/03 12:41:00;;;;;;;;;;;;;;;;;;5012240;28;1416;-72
2022/05/03 12:43:28;;;;;;;;;;;;;;;;;;5012163;28;965;-71
2022/05/03 12:45:58;;;;;;;;;;;;;;;;;;5010844;28;890;-72
2022/05/03 12:48:24;;;;;;;;;;;;;;;;;;5012045;28;1914;-73
2022/05/03 12:50:52;;;;;;;;;;;;;;;;;;5012067;28;1383;-72
2022/05/03 12:53:19;;;;;;;;;;;;;;;;;;5012336;28;1116;-72
2022/05/03 12:55:45;;;;;;;;;;;;;;;;;;5012079;28;1327;-72
2022/05/03 12:58:24;;;;;;;;;;;;;;;;;;5011728;28;886;-72
2022/05/03 13:00:51;;;;;;;;;;;;;;;;;;5011881;28;1381;-73
2022/05/03 13:03:18;;;;;;;;;;;;;;;;;;5011985;28;665;-72
2022/05/03 13:05:44;;;;;;;;;;;;;;;;;;5012071;28;775;-72
2022/05/03 13:08:12;;;;;;;;;;;;;;;;;;5011545;28;1918;-72
2022/05/03 13:10:38;;;;;;;;;;;;;;;;;;5011537;28;1404;-71
2022/05/03 13:13:05;;;;;;;;;;;;;;;;;;5012086;28;1071;-71
2022/05/03 13:15:31;;;;;;;;;;;;;;;;;;5011884;28;1115;-71
2022/05/03 13:17:57;;;;;;;;;;;;;;;;;;5012445;28;1455;-72
2022/05/03 13:20:24;;;;;;;;;;;;;;;;;;5013092;28;1627;-72
2022/05/03 13:22:50;;;;;;;;;;;;;;;;;;5011721;28;988;-72
2022/05/03 13:25:17;;;;;;;;;;;;;;;;;;5011345;28;1151;-72
2022/05/03 13:27:44;;;;;;;;;;;;;;;;;;5011050;28;1980;-72
2022/05/03 13:30:10;;;;;;;;;;;;;;;;;;5011505;28;1310;-72
2022/05/03 13:32:36;;;;;;;;;;;;;;;;;;5011566;28;914;-72
2022/05/03 13:35:03;;;;;;;;;;;;;;;;;;5011252;28;1076;-73
2022/05/03 13:40:31;;;;;;;;;;;;;;;;;;5011218;28;1423;-72
2022/05/03 13:42:59;;;;;;;;;;;;;;;;;;5008901;28;1077;-72
2022/05/03 13:45:25;;;;;;;;;;;;;;;;;;5011247;28;847;-72
2022/05/03 13:47:52;;;;;;;;;;;;;;;;;;5011214;28;1918;-72
2022/05/03 13:50:18;;;;;;;;;;;;;;;;;;5011261;28;1344;-72
2022/05/03 13:52:44;;;;;;;;;;;;;;;;;;5011151;28;889;-72
2022/05/03 13:55:10;;;;;;;;;;;;;;;;;;5011099;28;1079;-72
2022/05/03 13:57:36;;;;;;;;;;;;;;;;;;5009773;28;1112;-72
2022/05/03 14:00:05;;;;;;;;;;;;;;;;;;5009661;28;1258;-71
2022/05/03 14:02:39;;;;;;;;;;;;;;;;;;5011173;28;754;-71
2022/05/03 14:05:06;;;;;;;;;;;;;;;;;;5025004;23;3730;-72
2022/05/03 14:07:32;;;;;;;;;;;;;;;;;;5009677;28;1969;-72
2022/05/03 14:09:58;;;;;;;;;;;;;;;;;;5010998;28;1119;-72
2022/05/03 14:12:24;;;;;;;;;;;;;;;;;;5011142;28;1178;-71
2022/05/03 14:14:50;;;;;;;;;;;;;;;;;;5000995;28;1371;-72
2022/05/03 14:17:18;;;;;;;;;;;;;;;;;;4991397;28;1120;-72
2022/05/03 14:19:44;;;;;;;;;;;;;;;;;;4991279;28;891;-72
2022/05/03 14:22:10;;;;;;;;;;;;;;;;;;4991214;28;1088;-73
2022/05/03 14:24:37;;;;;;;;;;;;;;;;;;4988750;28;1945;-72
2022/05/03 14:27:03;;;;;;;;;;;;;;;;;;5005025;28;2017;-73
2022/05/03 14:29:29;;;;;;;;;;;;;;;;;;5004459;28;1918;-72
2022/05/03 14:31:55;;;;;;;;;;;;;;;;;;5010950;28;1022;-71
2022/05/03 14:34:23;;;;;;;;;;;;;;;;;;5010768;28;1310;-70
2022/05/03 14:36:49;;;;;;;;;;;;;;;;;;5010790;28;1103;-72
2022/05/03 14:39:18;;;;;;;;;;;;;;;;;;5010962;28;1024;-71
2022/05/03 14:41:44;;;;;;;;;;;;;;;;;;5010676;28;1103;-71
2022/05/03 14:44:10;;;;;;;;;;;;;;;;;;4997592;28;2521;-72
2022/05/03 14:46:36;;;;;;;;;;;;;;;;;;5004197;28;1210;-71
2022/05/03 14:49:02;;;;;;;;;;;;;;;;;;5010579;28;1971;-72
2022/05/03 14:51:30;;;;;;;;;;;;;;;;;;5009224;28;1148;-70
2022/05/03 14:53:56;;;;;;;;;;;;;;;;;;5011649;28;1384;-71
2022/05/03 15:04:34;;;;;;;;;;;;;;;;;;5016819;28;1290;-72
2022/05/03 15:07:01;;;;;;;;;;;;;;;;;;5014397;28;1072;-72
2022/05/03 15:09:28;;;;;;;;;;;;;;;;;;5014544;28;1922;-73
2022/05/03 15:11:54;;;;;;;;;;;;;;;;;;5014299;28;886;-72
2022/05/03 15:14:20;;;;;;;;;;;;;;;;;;5014530;28;1302;-72
2022/05/03 15:16:46;;;;;;;;;;;;;;;;;;5013927;28;1135;-72
2022/05/03 15:19:12;;;;;;;;;;;;;;;;;;5011498;28;1476;-73
2022/05/03 15:21:38;;;;;;;;;;;;;;;;;;4993204;28;1485;-72
2022/05/03 15:26:50;;;;;;;;;;;;;;;;;;4992794;28;1193;-71
2022/05/03 15:29:16;;;;;;;;;;;;;;;;;;4994439;28;1974;-69
2022/05/03 15:31:43;;;;;;;;;;;;;;;;;;4994318;28;1084;-72
2022/05/03 15:34:10;;;;;;;;;;;;;;;;;;4994586;28;1613;-72
2022/05/03 15:36:37;;;;;;;;;;;;;;;;;;4993991;28;1131;-72
2022/05/03 15:39:03;;;;;;;;;;;;;;;;;;4994483;28;675;-71
2022/05/03 15:41:31;;;;;;;;;;;;;;;;;;4994062;28;909;-72
2022/05/03 15:43:59;;;;;;;;;;;;;;;;;;4994033;28;1321;-71
2022/05/03 15:46:25;;;;;;;;;;;;;;;;;;4992778;28;1207;-72
2022/05/03 15:48:51;;;;;;;;;;;;;;;;;;4994025;28;1914;-72
2022/05/03 15:51:17;;;;;;;;;;;;;;;;;;4994071;28;1069;-72
2022/05/03 15:53:44;;;;;;;;;;;;;;;;;;4993958;28;1385;-72
2022/05/03 15:56:10;;;;;;;;;;;;;;;;;;4993853;28;1093;-72
2022/05/03 15:58:39;;;;;;;;;;;;;;;;;;4993897;28;1123;-72
2022/05/03 16:01:05;;;;;;;;;;;;;;;;;;4993697;28;903;-72
2022/05/03 16:03:31;;;;;;;;;;;;;;;;;;4994017;28;1080;-72
2022/05/03 16:05:57;;;;;;;;;;;;;;;;;;4992361;28;1401;-73
2022/05/03 16:08:24;;;;;;;;;;;;;;;;;;4993752;28;1974;-73
2022/05/03 16:10:50;;;;;;;;;;;;;;;;;;4993378;28;1097;-72
2022/05/03 16:13:17;;;;;;;;;;;;;;;;;;4993575;28;1064;-72
2022/05/03 16:15:44;;;;;;;;;;;;;;;;;;4993078;28;1405;-71
2022/05/03 16:18:11;;;;;;;;;;;;;;;;;;4993316;28;890;-72
2022/05/03 16:20:37;;;;;;;;;;;;;;;;;;4993172;28;1081;-71
2022/05/03 16:23:04;;;;;;;;;;;;;;;;;;4993558;28;1073;-72
2022/05/03 16:25:30;;;;;;;;;;;;;;;;;;4993384;28;1389;-71
2022/05/03 16:27:56;;;;;;;;;;;;;;;;;;4992959;28;2191;-72
2022/05/03 16:30:23;;;;;;;;;;;;;;;;;;4993151;28;1914;-72
2022/05/03 16:32:51;;;;;;;;;;;;;;;;;;4993346;28;1120;-71
2022/05/03 16:35:18;;;;;;;;;;;;;;;;;;4992860;28;1406;-72
2022/05/03 16:43:12;;;;;;;;;;;;;;;;;;4991860;28;931;-73
2022/05/03 16:45:38;;;;;;;;;;;;;;;;;;4992913;28;1322;-71
2022/05/03 16:48:06;;;;;;;;;;;;;;;;;;4992715;28;1972;-71
2022/05/03 16:50:32;;;;;;;;;;;;;;;;;;4991618;28;1237;-72
2022/05/03 16:52:59;;;;;;;;;;;;;;;;;;4992854;28;1068;-71
2022/05/03 16:55:25;;;;;;;;;;;;;;;;;;4992635;28;1411;-73
2022/05/03 16:57:51;;;;;;;;;;;;;;;;;;4992345;28;1005;-71
2022/05/03 17:00:18;;;;;;;;;;;;;;;;;;4991513;28;1145;-72
2022/05/03 17:02:44;;;;;;;;;;;;;;;;;;4992685;28;1052;-72
2022/05/03 17:05:12;;;;;;;;;;;;;;;;;;4992596;28;1376;-71
2022/05/03 17:07:38;;;;;;;;;;;;;;;;;;4992437;28;1061;-71
2022/05/03 17:10:05;;;;;;;;;;;;;;;;;;4992323;28;1919;-72
2022/05/03 17:12:31;;;;;;;;;;;;;;;;;;4992433;28;1072;-71
2022/05/03 17:14:58;;;;;;;;;;;;;;;;;;4991988;28;1488;-70
2022/05/03 17:17:24;;;;;;;;;;;;;;;;;;4991941;28;1488;-71
2022/05/03 17:19:50;;;;;;;;;;;;;;;;;;4992083;28;1062;-72
2022/05/03 17:22:19;;;;;;;;;;;;;;;;;;4992300;28;1139;-72
2022/05/03 17:24:45;;;;;;;;;;;;;;;;;;4992214;28;1299;-72
2022/05/03 17:27:13;;;;;;;;;;;;;;;;;;4991867;28;961;-72
2022/05/03 17:29:40;;;;;;;;;;;;;;;;;;4991311;28;1969;-71
2022/05/03 17:32:07;;;;;;;;;;;;;;;;;;4977756;28;1807;-71
2022/05/03 17:34:33;;;;;;;;;;;;;;;;;;4983010;28;1433;-70
2022/05/03 17:36:59;;;;;;;;;;;;;;;;;;4988712;28;1377;-71
2022/05/03 17:39:27;;;;;;;;;;;;;;;;;;4988331;28;1373;-71
2022/05/03 17:41:53;;;;;;;;;;;;;;;;;;4989882;28;1115;-69
2022/05/03 17:44:19;;;;;;;;;;;;;;;;;;4988666;28;1467;-72
2022/05/03 17:46:47;;;;;;;;;;;;;;;;;;4989580;28;1127;-70
2022/05/03 17:49:13;;;;;;;;;;;;;;;;;;4988213;28;1973;-71
2022/05/03 17:54:23;;;;;;;;;;;;;;;;;;4989247;28;1417;-71
2022/05/03 17:56:50;;;;;;;;;;;;;;;;;;4989487;28;1123;-71
2022/05/03 17:59:17;;;;;;;;;;;;;;;;;;4987660;28;1413;-71
2022/05/03 18:01:43;;;;;;;;;;;;;;;;;;4985280;28;1333;-70
2022/05/03 18:04:09;;;;;;;;;;;;;;;;;;4988888;28;1518;-71
2022/05/03 18:06:59;;;;;;;;;;;;;;;;;;4987263;28;1728;-71